HIDDEN DAM (HENSLEY) (HID)

Elevation: 561' · FRESNO R basin · Operator: US Army Corps of Engineers

Provisional data, subject to change.
Query executed Friday at 10:34:29   clock

Select a sensor type for a plot of data.
Note: Reservoir Flows are daily averages.

Earlier

Date RES ELE    STORAGE    RES CHG    TOC STO    ABV TOC    OUTFLOW    INFLOW    PPT INC    TEMP MN    TEMP MX    WINDLEN    EVP PAN   
 FEET   AF   AF   AF   AF   CFS   CFS   INCHES   DEG F   DEG F   MILES   INCHES  
04/23/2015 454.13 6906 3 76667 -69761 0 4 0.00 11 28 106 0.23
04/24/2015 454.13 6906 0 77333 -70427 0 2 0.00 11 23 128 0.23
04/25/2015 454.21 6935 29 78000 -71065 0 16 0.89 10 20 121 0.15
04/26/2015 454.27 6956 21 78667 -71711 0 13 0.03 7 24 134 0.23
04/27/2015 454.36 6988 32 79333 -72345 0 19 0.03 13 30 96 0.27
04/28/2015 454.42 7009 21 80000 -72991 0 14 0.03 15 33 116 0.32
04/29/2015 454.46 7023 -- 80667 -- 0 10 0.00 14 32 122 0.31
04/30/2015 454.50 7037 14 81333 -74296 0 10 0.00 14 34 92 0.31
05/01/2015 454.51 7041 4 82000 -74959 0 6 0.00 17 34 139 0.35
05/02/2015 454.53 7048 -- 82667 -75619 0 7 0.00 15 33 121 0.34
05/03/2015 454.53 7048 -- 83333 -76285 0 3 0.00 13 31 114 0.32
05/04/2015 454.53 7048 0 84000 -76952 0 3 0.00 11 28 115 0.27
05/05/2015 454.54 7052 -- 84667 -77615 0 5 0.00 10 28 127 0.28
05/06/2015 454.54 7052 0 85333 -78281 0 3 0.00 9 24 112 0.25
05/07/2015 454.54 7052 0 86000 -78948 0 2 0.00 10 18 114 0.16
05/08/2015 454.55 7055 3 86667 -79612 0 3 0.00 10 18 104 0.14
05/09/2015 454.57 7062 7 87333 -80271 0 6 0.00 14 25 107 0.26
05/10/2015 454.61 7076 14 88000 -80924 0 10 0.00 13 30 105 0.30
05/11/2015 454.63 7084 8 88667 -81583 0 7 0.00 13 29 140 0.31
05/12/2015 454.62 7080 -4 89333 -82253 0 1 0.00 9 24 125 0.26
05/13/2015 454.63 7084 4 90000 -82916 0 4 0.00 9 23 115 0.23
05/14/2015 454.64 7087 3 90000 -82913 0 3 0.00 12 20 130 0.16
05/15/2015 454.66 7094 7 90000 -82906 0 5 0.01 11 21 88 0.15
05/16/2015 454.66 7094 0 90000 -82906 0 3 0.03 8 25 104 0.26
05/17/2015 454.67 7098 4 90000 -82902 0 4 0.00 11 25 121 0.23
05/18/2015 454.67 7098 0 90000 -82902 0 3 0.01 13 25 163 0.29
05/19/2015 454.67 7098 0 90000 -82902 0 3 0.00 9 26 121 0.27
05/20/2015 454.67 7098 0 90000 -82902 0 3 0.00 11 27 135 0.29
05/21/2015 454.66 7094 -4 90000 -82906 0 -0 0.00 12 21 113 0.15
05/22/2015 -- -- -- -- -- -- -- -- -- -- -- --

Later | Latest

Warning! This data is preliminary and subject to revision.

Show HID Map | Plot HID Data | 1 Month HID Data | Real-Time HID Data | HID Info